createdAt,value
2019-04-07T00:02:16.385Z,15.10
2019-04-07T00:05:09.330Z,14.97
2019-04-07T00:07:41.425Z,14.47
2019-04-07T00:10:23.639Z,14.47
2019-04-07T00:13:05.452Z,15.43
2019-04-07T00:15:47.172Z,14.17
2019-04-07T00:18:28.185Z,14.93
2019-04-07T00:21:10.021Z,13.70
2019-04-07T00:23:51.148Z,15.07
2019-04-07T00:26:32.511Z,14.80
2019-04-07T00:29:14.445Z,14.77
2019-04-07T00:31:52.562Z,13.70
2019-04-07T00:34:41.501Z,15.27
2019-04-07T00:37:33.027Z,15.17
2019-04-07T00:40:05.477Z,13.47
2019-04-07T00:42:35.480Z,15.20
2019-04-07T00:45:06.131Z,15.10
2019-04-07T00:47:36.397Z,15.57
2019-04-07T00:50:06.596Z,15.00
2019-04-07T00:52:36.993Z,15.83
2019-04-07T00:55:08.007Z,15.67
2019-04-07T00:57:37.839Z,15.13
2019-04-07T01:00:09.626Z,16.87
2019-04-07T01:02:41.739Z,16.83
2019-04-07T01:05:11.712Z,16.03
2019-04-07T01:07:42.102Z,15.93
2019-04-07T01:10:13.042Z,15.13
2019-04-07T01:12:43.584Z,17.77
2019-04-07T01:15:14.039Z,15.67
2019-04-07T01:17:44.587Z,17.10
2019-04-07T01:20:15.115Z,16.07
2019-04-07T01:22:45.230Z,17.00
2019-04-07T01:25:15.968Z,14.57
2019-04-07T01:27:45.680Z,17.10
2019-04-07T01:30:16.184Z,16.43
2019-04-07T01:32:46.741Z,16.10
2019-04-07T01:35:16.846Z,16.30
2019-04-07T01:37:47.213Z,14.87
2019-04-07T01:40:18.418Z,14.20
2019-04-07T01:43:26.609Z,15.20
2019-04-07T01:46:34.112Z,14.13
2019-04-07T01:49:42.333Z,15.87
2019-04-07T01:52:50.350Z,14.27
2019-04-07T01:55:58.638Z,14.50
2019-04-07T02:05:59.811Z,13.13
2019-04-07T02:09:01.737Z,13.10
2019-04-07T02:12:10.433Z,13.53
2019-04-07T02:18:33.361Z,13.97
2019-04-07T02:21:41.182Z,13.97
2019-04-07T02:24:48.885Z,13.70
2019-04-07T02:27:43.506Z,13.17
2019-04-07T02:30:51.020Z,13.83
2019-04-07T02:33:54.532Z,13.27
2019-04-07T02:40:10.197Z,14.53
2019-04-07T02:43:05.344Z,13.03
2019-04-07T02:46:07.107Z,13.83
2019-04-07T02:48:56.374Z,13.40
2019-04-07T02:51:54.271Z,13.33
2019-04-07T02:54:44.452Z,13.33
2019-04-07T02:57:33.870Z,13.60
2019-04-07T03:00:22.943Z,13.67
2019-04-07T03:03:10.822Z,12.83
2019-04-07T03:05:48.285Z,13.00
2019-04-07T03:08:40.273Z,14.03
2019-04-07T03:11:37.973Z,14.47
2019-04-07T03:14:45.736Z,15.07
2019-04-07T03:17:53.891Z,15.43
2019-04-07T03:21:02.554Z,14.63
2019-04-07T03:24:10.086Z,15.37
2019-04-07T03:27:18.101Z,17.40
2019-04-07T03:30:17.816Z,16.90
2019-04-07T03:33:27.577Z,16.57
2019-04-07T03:36:24.254Z,16.73
2019-04-07T03:39:31.714Z,17.33
2019-04-07T03:45:55.837Z,17.33
2019-04-07T03:52:04.656Z,15.80
2019-04-07T03:55:06.564Z,16.17
2019-04-07T03:58:08.115Z,16.37
2019-04-07T04:01:08.624Z,16.90
2019-04-07T04:04:11.950Z,16.00
2019-04-07T04:07:23.397Z,17.03
2019-04-07T04:10:14.084Z,16.73
2019-04-07T04:13:14.377Z,17.70
2019-04-07T04:16:03.504Z,16.77
2019-04-07T04:18:44.774Z,16.90
2019-04-07T04:21:26.819Z,16.63
2019-04-07T04:24:08.337Z,15.90
2019-04-07T04:26:50.090Z,16.87
2019-04-07T04:29:31.734Z,16.00
2019-04-07T04:32:13.517Z,16.17
2019-04-07T04:34:55.081Z,15.37
2019-04-07T04:37:44.247Z,15.20
2019-04-07T04:40:20.809Z,15.47
2019-04-07T04:43:02.777Z,15.97
2019-04-07T04:45:44.895Z,15.53
2019-04-07T04:48:26.306Z,17.27
2019-04-07T04:51:08.590Z,16.50
2019-04-07T04:53:50.282Z,16.57
2019-04-07T04:56:31.334Z,16.00
2019-04-07T04:59:12.794Z,17.23
2019-04-07T05:01:54.118Z,16.73
2019-04-07T05:04:35.855Z,16.77
2019-04-07T05:07:17.612Z,16.30
2019-04-07T05:10:00.002Z,18.27
2019-04-07T05:12:41.997Z,17.97
2019-04-07T05:15:24.157Z,18.93
2019-04-07T05:18:05.252Z,17.07
2019-04-07T05:20:46.723Z,17.13
2019-04-07T05:23:28.486Z,17.43
2019-04-07T05:26:10.044Z,16.90
2019-04-07T05:28:50.973Z,16.47
2019-04-07T05:31:32.292Z,16.03
2019-04-07T05:34:17.226Z,16.90
2019-04-07T05:36:56.531Z,17.23
2019-04-07T05:39:38.378Z,14.83
2019-04-07T05:42:20.054Z,15.97
2019-04-07T05:45:01.857Z,14.53
2019-04-07T05:47:47.885Z,17.40
2019-04-07T05:50:29.659Z,18.30
2019-04-07T05:53:13.449Z,16.37
2019-04-07T05:55:54.128Z,17.40
2019-04-07T05:58:38.610Z,18.23
2019-04-07T06:01:23.396Z,18.03
2019-04-07T06:04:02.929Z,18.80
2019-04-07T06:06:44.296Z,20.93
2019-04-07T06:09:26.431Z,21.23
2019-04-07T06:12:09.734Z,21.80
2019-04-07T06:14:50.890Z,22.07
2019-04-07T06:17:32.175Z,23.57
2019-04-07T06:20:15.823Z,22.53
2019-04-07T06:22:56.441Z,23.13
2019-04-07T06:25:41.162Z,25.17
2019-04-07T06:28:20.727Z,25.27
2019-04-07T06:31:02.054Z,26.30
2019-04-07T06:33:43.513Z,25.20
2019-04-07T06:36:26.563Z,24.73
2019-04-07T06:39:08.219Z,25.07
2019-04-07T06:41:49.854Z,24.13
2019-04-07T06:44:31.382Z,25.40
2019-04-07T06:47:39.728Z,24.63
2019-04-07T06:50:56.614Z,25.27
2019-04-07T06:53:57.950Z,26.20
2019-04-07T06:57:06.436Z,26.87
2019-04-07T07:00:15.162Z,28.20
2019-04-07T07:03:24.154Z,27.50
2019-04-07T07:06:32.020Z,27.10
2019-04-07T07:09:14.784Z,25.47
2019-04-07T07:12:06.167Z,27.90
2019-04-07T07:14:55.163Z,25.50
2019-04-07T07:17:34.512Z,27.93
2019-04-07T07:20:11.468Z,26.60
2019-04-07T07:22:47.640Z,26.57
2019-04-07T07:25:17.008Z,27.57
2019-04-07T07:27:46.756Z,25.33
2019-04-07T07:30:18.323Z,26.17
2019-04-07T07:32:48.550Z,25.63
2019-04-07T07:35:19.012Z,25.53
2019-04-07T07:37:49.920Z,25.13
2019-04-07T07:43:38.204Z,24.03
2019-04-07T07:46:21.868Z,23.80
2019-04-07T07:49:02.211Z,24.20
2019-04-07T07:51:46.414Z,23.87
2019-04-07T07:54:28.236Z,24.33
2019-04-07T07:57:08.979Z,21.83
2019-04-07T07:59:50.935Z,20.03
2019-04-07T08:02:32.028Z,20.50
2019-04-07T08:05:13.624Z,19.93
2019-04-07T08:07:56.000Z,20.13
2019-04-07T08:10:37.578Z,21.00
2019-04-07T08:13:20.121Z,18.57
2019-04-07T08:16:01.982Z,19.10
2019-04-07T08:18:45.255Z,18.93
2019-04-07T08:21:26.811Z,17.97
2019-04-07T08:24:08.120Z,16.17
2019-04-07T08:26:50.305Z,17.43
2019-04-07T08:29:32.394Z,16.50
2019-04-07T08:32:13.337Z,18.13
2019-04-07T08:34:54.992Z,18.13
2019-04-07T08:37:36.443Z,18.23
2019-04-07T08:40:18.742Z,16.37
2019-04-07T08:43:01.174Z,19.10
2019-04-07T08:45:42.526Z,17.97
2019-04-07T08:48:23.952Z,17.50
2019-04-07T08:51:04.816Z,15.23
2019-04-07T08:53:47.311Z,11.60
2019-04-07T08:56:29.151Z,11.80
2019-04-07T08:59:13.903Z,11.07
2019-04-07T09:01:54.745Z,8.60
2019-04-07T09:04:35.597Z,7.00
2019-04-07T09:07:17.541Z,6.13
2019-04-07T09:09:59.860Z,5.40
2019-04-07T09:12:41.837Z,5.53
2019-04-07T09:18:53.975Z,7.63
2019-04-07T09:25:09.460Z,4.93
2019-04-07T09:28:19.937Z,4.23
2019-04-07T09:31:25.653Z,4.63
2019-04-07T09:34:33.503Z,5.23
2019-04-07T09:37:41.678Z,5.53
2019-04-07T09:44:17.343Z,6.37
2019-04-07T09:47:25.850Z,5.93
2019-04-07T09:50:34.369Z,6.13
2019-04-07T09:53:42.021Z,6.10
2019-04-07T09:56:49.774Z,7.07
2019-04-07T10:02:35.487Z,4.47
2019-04-07T10:05:34.471Z,4.87
2019-04-07T10:08:35.230Z,5.80
2019-04-07T10:11:54.349Z,5.27
2019-04-07T10:23:50.704Z,5.00
2019-04-07T10:26:45.340Z,5.23
2019-04-07T10:29:53.349Z,5.40
2019-04-07T10:33:01.804Z,5.37
2019-04-07T10:36:09.603Z,4.53
2019-04-07T10:39:17.544Z,4.70
2019-04-07T10:42:25.732Z,4.77
2019-04-07T10:48:31.594Z,5.90
2019-04-07T10:55:04.938Z,5.03
2019-04-07T10:58:12.454Z,4.77
2019-04-07T11:01:20.861Z,5.27
2019-04-07T11:04:29.439Z,4.53
2019-04-07T11:07:38.432Z,4.97
2019-04-07T11:10:34.621Z,5.00
2019-04-07T11:13:36.757Z,5.57
2019-04-07T11:20:11.601Z,6.70
2019-04-07T11:23:16.599Z,6.50
2019-04-07T11:26:18.057Z,7.13
2019-04-07T11:32:38.698Z,7.13
2019-04-07T11:35:29.896Z,6.50
2019-04-07T11:41:28.824Z,6.53
2019-04-07T11:47:26.111Z,6.93
2019-04-07T11:50:28.894Z,7.07
2019-04-07T11:53:35.027Z,7.87
2019-04-07T11:56:35.913Z,7.80
2019-04-07T11:59:37.639Z,6.47
2019-04-07T12:08:59.008Z,6.87
2019-04-07T12:15:26.941Z,6.50
2019-04-07T12:18:42.166Z,5.60
2019-04-07T12:21:39.364Z,6.33
2019-04-07T12:24:30.615Z,5.27
2019-04-07T12:27:37.796Z,6.00
2019-04-07T12:30:56.653Z,6.27
2019-04-07T12:37:02.399Z,6.20
2019-04-07T12:40:01.116Z,5.53
2019-04-07T12:43:01.263Z,5.80
2019-04-07T12:48:56.497Z,5.60
2019-04-07T12:54:59.346Z,4.80
2019-04-07T12:58:10.799Z,5.33
2019-04-07T13:01:31.685Z,5.00
2019-04-07T13:04:26.603Z,5.90
2019-04-07T13:10:56.216Z,6.57
2019-04-07T13:17:24.952Z,5.70
2019-04-07T13:20:33.929Z,6.60
2019-04-07T13:23:41.647Z,6.17
2019-04-07T13:26:50.022Z,6.23
2019-04-07T13:29:58.392Z,5.37
2019-04-07T13:33:05.956Z,6.07
2019-04-07T13:36:13.578Z,5.20
2019-04-07T13:39:21.393Z,5.77
2019-04-07T13:42:26.714Z,5.10
2019-04-07T13:45:22.864Z,5.70
2019-04-07T13:48:11.568Z,5.83
2019-04-07T13:51:16.907Z,5.20
2019-04-07T13:54:11.068Z,4.97
2019-04-07T13:57:00.494Z,5.33
2019-04-07T14:00:05.253Z,3.30
2019-04-07T14:02:52.292Z,3.80
2019-04-07T14:06:00.021Z,3.53
2019-04-07T14:08:51.645Z,3.47
2019-04-07T14:12:01.586Z,3.07
2019-04-07T14:14:54.852Z,2.70
2019-04-07T14:17:46.881Z,3.83
2019-04-07T14:20:34.651Z,3.20
2019-04-07T14:23:14.695Z,2.70
2019-04-07T14:26:22.336Z,3.10
2019-04-07T14:29:30.351Z,3.13
2019-04-07T14:32:38.437Z,2.70
2019-04-07T14:35:46.089Z,2.87
2019-04-07T14:38:54.295Z,2.73
2019-04-07T14:42:07.289Z,2.10
2019-04-07T14:45:12.135Z,2.13
2019-04-07T14:48:20.442Z,2.23
2019-04-07T14:51:29.514Z,2.87
2019-04-07T14:54:31.166Z,2.00
2019-04-07T14:57:25.488Z,2.03
2019-04-07T15:00:29.438Z,1.97
2019-04-07T15:05:59.689Z,1.63
2019-04-07T15:09:02.491Z,1.80
2019-04-07T15:11:49.523Z,1.50
2019-04-07T15:14:33.193Z,1.67
2019-04-07T15:17:14.594Z,1.53
2019-04-07T15:19:56.100Z,1.87
2019-04-07T15:22:37.790Z,1.13
2019-04-07T15:25:19.745Z,2.60
2019-04-07T15:28:01.344Z,1.80
2019-04-07T15:30:46.104Z,1.60
2019-04-07T15:33:25.883Z,1.60
2019-04-07T15:36:34.860Z,1.57
2019-04-07T15:39:27.893Z,1.70
2019-04-07T15:42:24.653Z,1.40
2019-04-07T15:44:46.288Z,1.83
2019-04-07T15:47:16.844Z,1.63
2019-04-07T15:49:48.468Z,1.43
2019-04-07T15:52:18.562Z,1.50
2019-04-07T15:54:49.365Z,1.23
2019-04-07T15:57:21.701Z,1.90
2019-04-07T15:59:50.928Z,1.73
2019-04-07T16:02:21.487Z,1.43
2019-04-07T16:04:52.373Z,1.80
2019-04-07T16:07:23.074Z,1.53
2019-04-07T16:09:56.908Z,1.40
2019-04-07T16:12:26.231Z,1.67
2019-04-07T16:15:16.583Z,1.87
2019-04-07T16:18:07.246Z,1.70
2019-04-07T16:21:30.316Z,1.70
2019-04-07T16:23:50.299Z,1.60
2019-04-07T16:26:38.316Z,1.50
2019-04-07T16:29:08.502Z,1.40
2019-04-07T16:31:42.797Z,1.53
2019-04-07T16:34:13.213Z,1.50
2019-04-07T16:36:44.127Z,1.47
2019-04-07T16:39:13.917Z,2.17
2019-04-07T16:41:46.909Z,1.97
2019-04-07T16:44:54.842Z,1.90
2019-04-07T16:56:56.275Z,1.47
2019-04-07T16:59:35.003Z,1.43
2019-04-07T17:02:17.889Z,1.30
2019-04-07T17:04:48.408Z,1.70
2019-04-07T17:07:38.053Z,1.50
2019-04-07T17:13:41.384Z,1.80
2019-04-07T17:16:11.803Z,1.90
2019-04-07T17:19:00.972Z,1.73
2019-04-07T17:21:50.145Z,2.43
2019-04-07T17:24:39.916Z,1.80
2019-04-07T17:28:03.753Z,1.50
2019-04-07T17:30:53.739Z,1.70
2019-04-07T17:36:23.645Z,1.80
2019-04-07T17:39:13.252Z,1.80
2019-04-07T17:45:21.272Z,1.50
2019-04-07T17:48:38.760Z,2.17
2019-04-07T17:51:20.372Z,2.00
2019-04-07T17:54:10.001Z,2.10
2019-04-07T17:57:01.230Z,2.07
2019-04-07T17:59:52.097Z,1.87
2019-04-07T18:03:06.106Z,1.73
2019-04-07T18:06:08.587Z,1.77
2019-04-07T18:09:19.763Z,1.90
2019-04-07T18:12:23.910Z,1.60
2019-04-07T18:15:13.676Z,1.60
2019-04-07T18:18:01.726Z,1.80
2019-04-07T18:20:49.734Z,1.80
2019-04-07T18:23:39.822Z,2.97
2019-04-07T18:26:31.810Z,4.10
2019-04-07T18:29:08.836Z,3.10
2019-04-07T18:32:10.192Z,2.60
2019-04-07T18:35:01.131Z,2.37
2019-04-07T18:37:55.774Z,1.97
2019-04-07T18:40:33.695Z,2.07
2019-04-07T18:43:25.624Z,1.93
2019-04-07T18:46:08.500Z,2.30
2019-04-07T18:48:51.621Z,2.93
2019-04-07T18:51:46.759Z,1.50
2019-04-07T18:54:26.928Z,1.90
2019-04-07T18:57:22.791Z,1.60
2019-04-07T19:00:04.307Z,1.53
2019-04-07T19:03:11.955Z,1.80
2019-04-07T19:05:53.354Z,1.70
2019-04-07T19:08:41.928Z,1.50
2019-04-07T19:11:24.504Z,2.00
2019-04-07T19:14:30.607Z,1.47
2019-04-07T19:17:05.215Z,1.90
2019-04-07T19:19:59.526Z,1.90
2019-04-07T19:22:50.620Z,2.43
2019-04-07T19:25:31.444Z,2.30
2019-04-07T19:28:23.226Z,2.00
2019-04-07T19:31:17.234Z,2.87
2019-04-07T19:34:20.571Z,2.73
2019-04-07T19:37:20.169Z,2.90
2019-04-07T19:40:17.944Z,2.73
2019-04-07T19:42:57.441Z,2.80
2019-04-07T19:45:39.261Z,3.80
2019-04-07T19:48:39.097Z,4.33
2019-04-07T19:51:32.011Z,3.73
2019-04-07T19:54:21.981Z,3.43
2019-04-07T19:57:13.700Z,3.07
2019-04-07T20:00:00.653Z,4.37
2019-04-07T20:02:49.538Z,7.10
2019-04-07T20:05:43.640Z,7.83
2019-04-07T20:08:36.308Z,9.63
2019-04-07T20:11:27.703Z,10.57
2019-04-07T20:14:03.199Z,12.07
2019-04-07T20:16:56.558Z,14.67
2019-04-07T20:19:41.228Z,15.97
2019-04-07T20:22:33.480Z,16.33
2019-04-07T20:25:19.012Z,15.70
2019-04-07T20:28:15.526Z,17.03
2019-04-07T20:31:03.978Z,17.93
2019-04-07T20:34:02.237Z,18.17
2019-04-07T20:36:59.955Z,16.60
2019-04-07T20:39:45.076Z,17.07
2019-04-07T20:42:36.763Z,18.00
2019-04-07T20:45:18.798Z,17.13
2019-04-07T20:48:03.584Z,16.57
2019-04-07T20:50:54.715Z,16.93
2019-04-07T20:53:39.592Z,16.53
2019-04-07T20:56:21.306Z,15.67
2019-04-07T20:59:12.351Z,18.07
2019-04-07T21:02:12.690Z,16.23
2019-04-07T21:05:00.436Z,16.20
2019-04-07T21:07:51.233Z,15.73
2019-04-07T21:10:41.448Z,15.97
2019-04-07T21:13:39.560Z,15.70
2019-04-07T21:16:29.515Z,15.63
2019-04-07T21:30:59.813Z,15.37
2019-04-07T21:34:07.283Z,16.97
2019-04-07T21:37:16.187Z,15.57
2019-04-07T21:46:52.050Z,15.10
2019-04-07T21:49:40.777Z,14.07
2019-04-07T21:52:52.927Z,14.17
2019-04-07T21:59:07.516Z,16.53
2019-04-07T22:02:15.459Z,15.93
2019-04-07T22:05:24.470Z,15.50
2019-04-07T22:08:20.040Z,14.90
2019-04-07T22:11:09.727Z,16.00
2019-04-07T22:13:40.692Z,16.60
2019-04-07T22:16:11.605Z,15.80
2019-04-07T22:18:41.811Z,16.60
2019-04-07T22:24:33.338Z,16.00
2019-04-07T22:35:51.336Z,15.70
2019-04-07T22:38:23.481Z,14.60
2019-04-07T22:40:52.770Z,16.67
2019-04-07T22:43:23.024Z,16.87
2019-04-07T22:46:04.298Z,14.90
2019-04-07T22:48:26.790Z,16.30
2019-04-07T22:50:56.286Z,15.70
2019-04-07T22:53:28.847Z,17.60
2019-04-07T22:55:57.468Z,16.70
2019-04-07T22:58:27.782Z,17.10
2019-04-07T23:00:58.566Z,17.50
2019-04-07T23:06:46.572Z,18.87
2019-04-07T23:09:35.226Z,19.90
2019-04-07T23:12:16.926Z,19.47
2019-04-07T23:17:49.338Z,21.83
2019-04-07T23:20:38.113Z,22.50
2019-04-07T23:23:28.964Z,22.00
2019-04-07T23:25:58.664Z,24.13
2019-04-07T23:28:28.672Z,23.47
2019-04-07T23:30:59.030Z,22.83
2019-04-07T23:33:29.744Z,23.00
2019-04-07T23:35:59.687Z,23.97
2019-04-07T23:38:30.435Z,24.57
2019-04-07T23:41:20.113Z,24.80
2019-04-07T23:43:50.585Z,26.57
2019-04-07T23:49:02.219Z,27.27
2019-04-07T23:51:32.138Z,27.07
2019-04-07T23:54:20.788Z,26.93
2019-04-07T23:57:09.654Z,26.80
2019-04-07T23:59:58.297Z,28.07
